Time;durP1;ratioP1;P1;durP2;ratioP2;P2;SDS_P1;SDS_P2;PMS_P1;PMS_P2;Temp;Humidity;BMP_temperature;BMP_pressure;BME280_temperature;BME280_humidity;BME280_pressure;Samples;Min_cycle;Max_cycle;Signal;HPM_P1;HPM_P2
2021/07/03 00:00:23;;;;;;;;;;;20.70;53.90;;;;;;1487067;39;19940;-73
2021/07/03 00:01:44;;;;;;;;;;;20.80;54.00;;;;;;1488263;40;20181;-74
2021/07/03 00:03:05;;;;;;;;;;;20.70;54.00;;;;;;1485179;40;19932;-74
2021/07/03 00:04:26;;;;;;;;;;;20.70;54.00;;;;;;1486835;40;19947;-74
2021/07/03 00:05:47;;;;;;;;;;;20.70;54.00;;;;;;1487620;40;20381;-73
2021/07/03 00:07:08;;;;;;;;;;;20.70;54.10;;;;;;1487439;40;19936;-74
2021/07/03 00:08:29;;;;;;;;;;;20.70;54.10;;;;;;1485483;40;19997;-73
2021/07/03 00:09:49;;;;;;;;;;;20.70;54.10;;;;;;1485809;40;19984;-73
2021/07/03 00:11:10;;;;;;;;;;;20.70;54.10;;;;;;1487078;40;19932;-73
2021/07/03 00:12:31;;;;;;;;;;;20.60;54.10;;;;;;1485815;40;19947;-74
2021/07/03 00:13:52;;;;;;;;;;;20.60;54.10;;;;;;1486764;40;19943;-74
2021/07/03 00:15:15;;;;;;;;;;;20.60;54.10;;;;;;1485681;40;19935;-74
2021/07/03 00:16:36;;;;;;;;;;;20.60;54.10;;;;;;1486815;40;20228;-74
2021/07/03 00:18:00;;;;;;;;;;;20.60;54.20;;;;;;1485615;39;20369;-74
2021/07/03 00:19:20;;;;;;;;;;;20.70;54.20;;;;;;1485651;39;19935;-74
2021/07/03 00:20:41;;;;;;;;;;;20.60;54.20;;;;;;1487041;40;19989;-74
2021/07/03 00:22:02;;;;;;;;;;;20.60;54.20;;;;;;1486934;40;19940;-74
2021/07/03 00:23:23;;;;;;;;;;;20.50;54.10;;;;;;1487148;40;20241;-74
2021/07/03 00:24:44;;;;;;;;;;;20.60;54.20;;;;;;1485445;40;20177;-73
2021/07/03 00:26:05;;;;;;;;;;;20.60;54.20;;;;;;1484419;40;19952;-73
2021/07/03 00:27:25;;;;;;;;;;;20.60;54.20;;;;;;1487000;40;19968;-74
2021/07/03 00:28:46;;;;;;;;;;;20.50;54.20;;;;;;1487073;40;20161;-74
2021/07/03 00:30:08;;;;;;;;;;;20.60;54.20;;;;;;1486665;40;19972;-73
2021/07/03 00:31:28;;;;;;;;;;;20.50;54.20;;;;;;1487946;40;19944;-74
2021/07/03 00:32:49;;;;;;;;;;;20.50;54.20;;;;;;1482606;40;20174;-74
2021/07/03 00:34:10;;;;;;;;;;;20.50;54.20;;;;;;1485559;40;19983;-73
2021/07/03 00:35:31;;;;;;;;;;;20.50;54.20;;;;;;1485918;40;20332;-74
2021/07/03 00:36:52;;;;;;;;;;;20.50;54.30;;;;;;1486686;40;19944;-74
2021/07/03 00:38:13;;;;;;;;;;;20.50;54.30;;;;;;1487684;40;19979;-74
2021/07/03 00:39:33;;;;;;;;;;;20.50;54.30;;;;;;1486110;39;19979;-74
2021/07/03 00:40:54;;;;;;;;;;;20.50;54.30;;;;;;1486153;40;20120;-74
2021/07/03 00:42:15;;;;;;;;;;;20.50;54.30;;;;;;1487701;40;20248;-74
2021/07/03 00:43:36;;;;;;;;;;;20.50;54.40;;;;;;1486655;40;20047;-74
2021/07/03 00:44:57;;;;;;;;;;;20.50;54.40;;;;;;1485915;40;20044;-74
2021/07/03 00:46:18;;;;;;;;;;;20.40;54.40;;;;;;1486591;40;20457;-74
2021/07/03 00:47:39;;;;;;;;;;;20.40;54.40;;;;;;1481871;40;20354;-73
2021/07/03 00:49:00;;;;;;;;;;;20.40;54.40;;;;;;1485153;40;19944;-74
2021/07/03 00:50:20;;;;;;;;;;;20.40;54.40;;;;;;1486603;40;19944;-74
2021/07/03 00:51:41;;;;;;;;;;;20.40;54.50;;;;;;1485826;40;19936;-74
2021/07/03 00:53:02;;;;;;;;;;;20.40;54.50;;;;;;1487131;40;20045;-74
2021/07/03 00:54:24;;;;;;;;;;;20.40;54.50;;;;;;1484655;40;20153;-74
2021/07/03 00:55:45;;;;;;;;;;;20.30;54.50;;;;;;1483894;40;19936;-74
2021/07/03 00:57:07;;;;;;;;;;;20.40;54.60;;;;;;1486239;39;20030;-74
2021/07/03 00:58:28;;;;;;;;;;;20.30;54.50;;;;;;1486807;40;19963;-74
2021/07/03 00:59:48;;;;;;;;;;;20.30;54.50;;;;;;1486540;40;19936;-73
2021/07/03 01:01:09;;;;;;;;;;;20.30;54.50;;;;;;1485930;40;20253;-74
2021/07/03 01:02:30;;;;;;;;;;;20.30;54.50;;;;;;1487002;40;20245;-74
2021/07/03 01:03:51;;;;;;;;;;;20.30;54.50;;;;;;1486893;40;19932;-74
2021/07/03 01:05:12;;;;;;;;;;;20.30;54.50;;;;;;1486058;40;19942;-74
2021/07/03 01:06:33;;;;;;;;;;;20.20;54.50;;;;;;1486867;40;19936;-74
2021/07/03 01:07:54;;;;;;;;;;;20.20;54.50;;;;;;1485871;39;20534;-74
2021/07/03 01:09:14;;;;;;;;;;;20.20;54.50;;;;;;1485961;40;19929;-74
2021/07/03 01:10:35;;;;;;;;;;;20.20;54.50;;;;;;1487105;40;20266;-74
2021/07/03 01:11:56;;;;;;;;;;;20.20;54.50;;;;;;1487541;40;19932;-74
2021/07/03 01:13:17;;;;;;;;;;;20.20;54.60;;;;;;1486921;40;19938;-73
2021/07/03 01:14:46;;;;;;;;;;;20.10;54.60;;;;;;1489033;40;19948;-73
2021/07/03 01:16:07;;;;;;;;;;;20.20;54.60;;;;;;1487024;40;19971;-73
2021/07/03 01:17:28;;;;;;;;;;;20.10;54.60;;;;;;1485417;40;20250;-74
2021/07/03 01:18:48;;;;;;;;;;;20.10;54.60;;;;;;1487910;39;19989;-74
2021/07/03 01:20:10;;;;;;;;;;;20.10;54.60;;;;;;1486833;39;19940;-72
2021/07/03 01:21:30;;;;;;;;;;;20.10;54.60;;;;;;1486624;39;19948;-74
2021/07/03 01:22:51;;;;;;;;;;;20.10;54.70;;;;;;1487197;40;19936;-74
2021/07/03 01:24:12;;;;;;;;;;;20.10;54.70;;;;;;1487241;40;19932;-74
2021/07/03 01:25:33;;;;;;;;;;;20.10;54.70;;;;;;1486089;40;19940;-74
2021/07/03 01:26:54;;;;;;;;;;;20.10;54.70;;;;;;1487359;40;19932;-74
2021/07/03 01:28:15;;;;;;;;;;;20.00;54.70;;;;;;1486117;40;20173;-74
2021/07/03 01:29:39;;;;;;;;;;;20.10;54.80;;;;;;1487298;40;19948;-74
2021/07/03 01:30:59;;;;;;;;;;;20.10;54.80;;;;;;1487147;40;20024;-74
2021/07/03 01:32:22;;;;;;;;;;;20.00;54.80;;;;;;1484734;40;19940;-74
2021/07/03 01:33:43;;;;;;;;;;;19.50;54.60;;;;;;1485742;40;19936;-73
2021/07/03 01:35:04;;;;;;;;;;;20.00;54.80;;;;;;1487896;40;19951;-74
2021/07/03 01:36:25;;;;;;;;;;;20.00;54.80;;;;;;1487999;40;19952;-74
2021/07/03 01:37:45;;;;;;;;;;;20.00;54.80;;;;;;1488107;39;19955;-74
2021/07/03 01:39:07;;;;;;;;;;;20.00;54.80;;;;;;1487921;39;19943;-73
2021/07/03 01:40:28;;;;;;;;;;;20.00;54.80;;;;;;1486153;40;20393;-73
2021/07/03 01:41:49;;;;;;;;;;;20.00;54.90;;;;;;1482163;40;19937;-74
2021/07/03 01:43:10;;;;;;;;;;;20.00;54.80;;;;;;1485782;40;20028;-74
2021/07/03 01:44:31;;;;;;;;;;;19.90;54.80;;;;;;1486477;40;20258;-74
2021/07/03 01:45:52;;;;;;;;;;;19.90;54.90;;;;;;1483028;40;19936;-74
2021/07/03 01:47:13;;;;;;;;;;;20.00;55.50;;;;;;1484954;40;19932;-74
2021/07/03 01:48:34;;;;;;;;;;;19.90;54.90;;;;;;1487588;40;19936;-74
2021/07/03 01:49:55;;;;;;;;;;;19.90;55.40;;;;;;1486878;40;19943;-74
2021/07/03 01:51:16;;;;;;;;;;;19.90;54.90;;;;;;1483216;40;20334;-73
2021/07/03 01:52:37;;;;;;;;;;;19.90;54.90;;;;;;1485777;40;19940;-73
2021/07/03 01:53:58;;;;;;;;;;;19.90;54.90;;;;;;1483149;40;19932;-73
2021/07/03 01:55:19;;;;;;;;;;;19.90;54.90;;;;;;1483981;40;19932;-73
2021/07/03 01:56:44;;;;;;;;;;;19.80;54.90;;;;;;1488138;39;19936;-73
2021/07/03 01:58:05;;;;;;;;;;;19.90;55.00;;;;;;1486371;39;19948;-73
2021/07/03 01:59:26;;;;;;;;;;;19.90;55.00;;;;;;1486090;39;19962;-73
2021/07/03 02:00:48;;;;;;;;;;;19.90;55.00;;;;;;1485557;39;20272;-73
2021/07/03 02:02:09;;;;;;;;;;;19.90;55.00;;;;;;1487227;40;19940;-74
2021/07/03 02:03:29;;;;;;;;;;;19.80;55.00;;;;;;1487082;40;19955;-73
2021/07/03 02:04:50;;;;;;;;;;;19.80;55.00;;;;;;1487293;40;20357;-74
2021/07/03 02:06:11;;;;;;;;;;;19.80;55.00;;;;;;1486888;40;19972;-73
2021/07/03 02:07:32;;;;;;;;;;;19.80;55.10;;;;;;1486796;40;19944;-74
2021/07/03 02:08:53;;;;;;;;;;;19.80;55.00;;;;;;1487852;40;19940;-73
2021/07/03 02:10:13;;;;;;;;;;;19.80;55.10;;;;;;1482119;40;19940;-74
2021/07/03 02:11:34;;;;;;;;;;;19.80;55.10;;;;;;1484448;40;19947;-74
2021/07/03 02:12:55;;;;;;;;;;;19.70;55.00;;;;;;1487389;40;19940;-74
2021/07/03 02:14:16;;;;;;;;;;;19.80;55.10;;;;;;1487397;40;20016;-73
2021/07/03 02:15:37;;;;;;;;;;;19.70;55.10;;;;;;1487815;40;20304;-74
2021/07/03 02:16:58;;;;;;;;;;;19.70;55.10;;;;;;1487229;40;20162;-74
2021/07/03 02:18:19;;;;;;;;;;;19.70;55.10;;;;;;1486125;40;20021;-74
2021/07/03 02:19:40;;;;;;;;;;;19.70;55.20;;;;;;1487172;39;20021;-73
2021/07/03 02:21:01;;;;;;;;;;;19.70;55.20;;;;;;1487688;40;19932;-73
2021/07/03 02:22:21;;;;;;;;;;;19.70;55.20;;;;;;1486663;40;19936;-74
2021/07/03 02:23:42;;;;;;;;;;;19.70;55.20;;;;;;1488052;40;19987;-74
2021/07/03 02:25:03;;;;;;;;;;;19.70;55.20;;;;;;1487089;40;20254;-73
2021/07/03 02:26:25;;;;;;;;;;;19.70;55.20;;;;;;1486936;40;19939;-73
2021/07/03 02:27:46;;;;;;;;;;;19.70;55.30;;;;;;1486756;40;19932;-74
2021/07/03 02:29:06;;;;;;;;;;;19.70;55.30;;;;;;1485631;40;20301;-73
2021/07/03 02:30:27;;;;;;;;;;;19.70;55.30;;;;;;1487120;40;20021;-73
2021/07/03 02:31:48;;;;;;;;;;;19.80;55.40;;;;;;1486267;40;19936;-73
2021/07/03 02:33:09;;;;;;;;;;;19.70;55.40;;;;;;1485890;40;19951;-74
2021/07/03 02:34:30;;;;;;;;;;;19.70;55.30;;;;;;1486239;40;19936;-73
2021/07/03 02:35:51;;;;;;;;;;;19.70;55.40;;;;;;1487607;40;19940;-73
2021/07/03 02:37:12;;;;;;;;;;;19.60;55.40;;;;;;1485764;40;19964;-74
2021/07/03 02:38:32;;;;;;;;;;;19.60;55.40;;;;;;1485540;40;20267;-74
2021/07/03 02:39:53;;;;;;;;;;;19.60;55.40;;;;;;1486061;40;19936;-73
2021/07/03 02:41:14;;;;;;;;;;;19.60;55.40;;;;;;1487491;39;19932;-74
2021/07/03 02:42:35;;;;;;;;;;;19.60;55.40;;;;;;1487670;40;20173;-73
2021/07/03 02:43:59;;;;;;;;;;;19.60;55.40;;;;;;1486044;40;19936;-74
2021/07/03 02:45:19;;;;;;;;;;;19.60;55.40;;;;;;1484852;40;19933;-74
2021/07/03 02:46:40;;;;;;;;;;;19.60;55.40;;;;;;1484836;40;19948;-74
2021/07/03 02:48:01;;;;;;;;;;;19.60;55.40;;;;;;1486745;40;20287;-73
2021/07/03 02:49:22;;;;;;;;;;;19.50;55.40;;;;;;1485469;40;19936;-74
2021/07/03 02:50:43;;;;;;;;;;;19.60;55.40;;;;;;1486030;40;19940;-73
2021/07/03 02:52:04;;;;;;;;;;;19.50;55.50;;;;;;1485721;40;19939;-73
2021/07/03 02:53:25;;;;;;;;;;;19.60;55.50;;;;;;1485910;40;19999;-73
2021/07/03 02:54:48;;;;;;;;;;;19.60;55.60;;;;;;1485631;40;19954;-74
2021/07/03 02:56:09;;;;;;;;;;;19.50;55.50;;;;;;1481828;40;19932;-74
2021/07/03 02:57:30;;;;;;;;;;;19.50;55.50;;;;;;1482331;40;19944;-74
2021/07/03 02:58:51;;;;;;;;;;;19.50;55.50;;;;;;1483928;40;19935;-74
2021/07/03 03:00:13;;;;;;;;;;;19.50;55.60;;;;;;1484843;40;19933;-74
2021/07/03 03:01:34;;;;;;;;;;;19.50;55.60;;;;;;1486272;40;19940;-73
2021/07/03 03:02:55;;;;;;;;;;;19.50;55.60;;;;;;1486966;40;20289;-74
2021/07/03 03:04:16;;;;;;;;;;;19.50;55.60;;;;;;1482287;40;19956;-73
2021/07/03 03:05:36;;;;;;;;;;;19.50;55.60;;;;;;1484682;40;19940;-74
2021/07/03 03:06:57;;;;;;;;;;;19.40;55.60;;;;;;1486345;40;20195;-74
2021/07/03 03:08:18;;;;;;;;;;;19.40;55.60;;;;;;1486344;40;19985;-74
2021/07/03 03:09:39;;;;;;;;;;;19.50;55.70;;;;;;1487728;40;20142;-74
2021/07/03 03:11:02;;;;;;;;;;;19.40;55.70;;;;;;1485217;40;19947;-73
2021/07/03 03:12:23;;;;;;;;;;;19.40;55.70;;;;;;1487300;40;19936;-74
2021/07/03 03:13:43;;;;;;;;;;;19.40;55.70;;;;;;1486030;40;20241;-74
2021/07/03 03:15:05;;;;;;;;;;;19.40;55.70;;;;;;1484804;40;19940;-73
2021/07/03 03:16:27;;;;;;;;;;;19.40;55.70;;;;;;1485957;40;19943;-74
2021/07/03 03:17:48;;;;;;;;;;;19.40;55.80;;;;;;1485689;40;19940;-74
2021/07/03 03:19:09;;;;;;;;;;;19.40;55.80;;;;;;1487359;39;19936;-74
2021/07/03 03:20:29;;;;;;;;;;;19.40;55.80;;;;;;1487211;40;19967;-76
2021/07/03 03:21:50;;;;;;;;;;;19.00;55.60;;;;;;1486223;39;19932;-73
2021/07/03 03:23:11;;;;;;;;;;;19.30;55.80;;;;;;1486174;40;19939;-74
2021/07/03 03:24:32;;;;;;;;;;;19.30;55.80;;;;;;1487824;39;19962;-73
2021/07/03 03:25:53;;;;;;;;;;;19.30;55.80;;;;;;1487323;40;20257;-74
2021/07/03 03:27:14;;;;;;;;;;;19.30;55.80;;;;;;1485050;40;19932;-73
2021/07/03 03:28:35;;;;;;;;;;;19.30;55.90;;;;;;1482563;40;19936;-74
2021/07/03 03:29:56;;;;;;;;;;;19.30;55.90;;;;;;1484236;40;20251;-74
2021/07/03 03:31:16;;;;;;;;;;;19.30;55.90;;;;;;1485805;40;19935;-74
2021/07/03 03:32:37;;;;;;;;;;;19.30;56.00;;;;;;1488109;40;19932;-74
2021/07/03 03:33:58;;;;;;;;;;;19.30;56.00;;;;;;1487843;40;20168;-74
2021/07/03 03:35:19;;;;;;;;;;;19.30;56.00;;;;;;1485032;40;20021;-74
2021/07/03 03:36:40;;;;;;;;;;;19.30;56.00;;;;;;1486338;40;19939;-74
2021/07/03 03:38:00;;;;;;;;;;;19.30;56.00;;;;;;1487580;40;20261;-74
2021/07/03 03:39:21;;;;;;;;;;;19.30;56.10;;;;;;1486880;40;19943;-74
2021/07/03 03:40:42;;;;;;;;;;;19.30;56.10;;;;;;1486029;40;19940;-73
2021/07/03 03:42:03;;;;;;;;;;;19.30;56.10;;;;;;1486779;39;19980;-74
2021/07/03 03:43:24;;;;;;;;;;;19.30;56.10;;;;;;1483324;40;19939;-74
2021/07/03 03:44:45;;;;;;;;;;;19.30;56.20;;;;;;1484868;40;19936;-74
2021/07/03 03:46:06;;;;;;;;;;;19.30;56.20;;;;;;1487589;40;19984;-74
2021/07/03 03:47:26;;;;;;;;;;;19.30;56.20;;;;;;1487477;40;19932;-74
2021/07/03 03:48:47;;;;;;;;;;;19.30;56.20;;;;;;1487502;40;20345;-73
2021/07/03 03:50:08;;;;;;;;;;;19.30;56.20;;;;;;1487198;40;19932;-73
2021/07/03 03:51:29;;;;;;;;;;;19.30;56.30;;;;;;1485217;40;20581;-73
2021/07/03 03:52:50;;;;;;;;;;;19.30;56.30;;;;;;1486965;39;20110;-73
2021/07/03 03:54:11;;;;;;;;;;;19.30;56.30;;;;;;1486912;39;19951;-74
2021/07/03 03:55:32;;;;;;;;;;;19.30;56.40;;;;;;1485879;40;19940;-73
2021/07/03 03:58:32;;;;;;;;;;;19.30;56.40;;;;;;1486880;40;20138;-73
2021/07/03 03:59:53;;;;;;;;;;;19.30;56.40;;;;;;1486119;40;19981;-73
2021/07/03 04:01:13;;;;;;;;;;;19.30;56.40;;;;;;1486193;40;19947;-73
2021/07/03 04:02:34;;;;;;;;;;;19.30;56.40;;;;;;1487125;40;19946;-73
2021/07/03 04:03:55;;;;;;;;;;;19.30;56.40;;;;;;1487136;39;19944;-74
2021/07/03 04:05:16;;;;;;;;;;;19.30;56.40;;;;;;1488758;39;19944;-73
2021/07/03 04:06:36;;;;;;;;;;;19.30;56.50;;;;;;1487772;40;19936;-73
2021/07/03 04:07:57;;;;;;;;;;;19.30;56.50;;;;;;1485654;40;19962;-73
2021/07/03 04:09:18;;;;;;;;;;;19.30;56.50;;;;;;1486020;40;20081;-73
2021/07/03 04:10:39;;;;;;;;;;;19.30;56.50;;;;;;1488086;40;19939;-73
2021/07/03 04:12:00;;;;;;;;;;;19.30;56.50;;;;;;1485627;40;19936;-74
2021/07/03 04:13:20;;;;;;;;;;;19.30;56.50;;;;;;1486511;40;19986;-74
2021/07/03 04:14:41;;;;;;;;;;;19.30;56.50;;;;;;1485826;40;20028;-73
2021/07/03 04:16:02;;;;;;;;;;;19.40;56.60;;;;;;1485595;40;19936;-73
2021/07/03 04:17:23;;;;;;;;;;;19.40;56.60;;;;;;1486187;40;19935;-73
2021/07/03 04:18:44;;;;;;;;;;;19.40;56.60;;;;;;1487957;40;20028;-73
2021/07/03 04:20:07;;;;;;;;;;;19.30;56.50;;;;;;1484883;40;19955;-74
2021/07/03 04:21:28;;;;;;;;;;;19.40;56.60;;;;;;1485278;40;19940;-74
2021/07/03 04:22:49;;;;;;;;;;;19.40;56.60;;;;;;1486061;39;19950;-73
2021/07/03 04:24:09;;;;;;;;;;;19.40;56.60;;;;;;1486982;39;20016;-73
2021/07/03 04:25:30;;;;;;;;;;;19.40;56.60;;;;;;1484464;40;19932;-73
2021/07/03 04:26:51;;;;;;;;;;;19.30;56.60;;;;;;1484824;40;20272;-74
2021/07/03 04:28:12;;;;;;;;;;;19.40;56.60;;;;;;1485611;40;19958;-73
2021/07/03 04:29:33;;;;;;;;;;;19.40;56.60;;;;;;1486268;40;19940;-74
2021/07/03 04:30:54;;;;;;;;;;;19.40;56.60;;;;;;1485402;40;20025;-74
2021/07/03 04:32:15;;;;;;;;;;;19.40;56.60;;;;;;1486990;40;20317;-74
2021/07/03 04:33:35;;;;;;;;;;;19.40;56.60;;;;;;1486166;40;19948;-74
2021/07/03 04:34:56;;;;;;;;;;;19.40;56.70;;;;;;1487100;40;19972;-73
2021/07/03 04:36:17;;;;;;;;;;;19.40;56.70;;;;;;1484566;40;19933;-74
2021/07/03 04:37:38;;;;;;;;;;;19.30;56.70;;;;;;1487781;40;19933;-74
2021/07/03 04:38:59;;;;;;;;;;;19.40;56.70;;;;;;1484346;40;19940;-74
2021/07/03 04:40:19;;;;;;;;;;;19.30;56.70;;;;;;1486914;40;19932;-74
2021/07/03 04:41:40;;;;;;;;;;;19.40;56.70;;;;;;1487135;39;19947;-74
2021/07/03 04:43:01;;;;;;;;;;;19.30;56.70;;;;;;1486261;40;19977;-73
2021/07/03 04:44:22;;;;;;;;;;;19.40;56.70;;;;;;1488060;39;20190;-74
2021/07/03 04:45:43;;;;;;;;;;;19.30;56.70;;;;;;1487563;40;19936;-74
2021/07/03 04:47:03;;;;;;;;;;;19.40;56.80;;;;;;1487983;40;19936;-74
2021/07/03 04:48:24;;;;;;;;;;;19.30;56.70;;;;;;1486875;40;20332;-74
2021/07/03 04:49:45;;;;;;;;;;;19.30;56.80;;;;;;1486958;40;20053;-74
2021/07/03 04:51:06;;;;;;;;;;;19.30;56.80;;;;;;1487373;40;19932;-74
2021/07/03 04:52:28;;;;;;;;;;;19.30;56.90;;;;;;1484778;40;20082;-74
2021/07/03 04:53:49;;;;;;;;;;;19.40;57.00;;;;;;1486856;40;19938;-74
2021/07/03 04:55:10;;;;;;;;;;;19.40;56.90;;;;;;1487311;40;20202;-74
2021/07/03 04:56:31;;;;;;;;;;;19.30;56.90;;;;;;1485367;40;20226;-73
2021/07/03 04:57:52;;;;;;;;;;;19.30;56.90;;;;;;1487343;40;19948;-74
2021/07/03 04:59:13;;;;;;;;;;;19.40;57.00;;;;;;1487235;40;19951;-74
2021/07/03 05:00:34;;;;;;;;;;;19.30;56.90;;;;;;1483334;40;19967;-73
2021/07/03 05:01:55;;;;;;;;;;;19.30;57.00;;;;;;1485867;40;19941;-74
2021/07/03 05:03:16;;;;;;;;;;;19.30;57.00;;;;;;1487003;39;19955;-74
2021/07/03 05:04:37;;;;;;;;;;;19.30;57.00;;;;;;1485776;40;19978;-74
2021/07/03 05:05:58;;;;;;;;;;;19.40;57.10;;;;;;1482586;40;19944;-74
2021/07/03 05:07:19;;;;;;;;;;;19.40;57.00;;;;;;1485317;40;19942;-74
2021/07/03 05:08:40;;;;;;;;;;;19.40;57.10;;;;;;1485786;40;19946;-74
2021/07/03 05:10:00;;;;;;;;;;;19.40;57.10;;;;;;1487283;40;19951;-74
2021/07/03 05:11:21;;;;;;;;;;;19.40;57.20;;;;;;1485427;40;19946;-74
2021/07/03 05:12:42;;;;;;;;;;;19.40;57.10;;;;;;1486466;40;19953;-74
2021/07/03 05:14:03;;;;;;;;;;;19.40;57.10;;;;;;1487089;40;20197;-74
2021/07/03 05:15:24;;;;;;;;;;;19.40;57.10;;;;;;1485422;40;20026;-73
2021/07/03 05:16:44;;;;;;;;;;;19.40;57.20;;;;;;1487157;40;20020;-74
2021/07/03 05:18:05;;;;;;;;;;;19.40;57.20;;;;;;1486989;39;19989;-74
2021/07/03 05:19:26;;;;;;;;;;;19.40;57.30;;;;;;1486064;39;20025;-74
2021/07/03 05:20:47;;;;;;;;;;;19.40;57.30;;;;;;1486485;40;19943;-73
2021/07/03 05:22:08;;;;;;;;;;;19.40;57.30;;;;;;1486450;40;19942;-73
2021/07/03 05:23:28;;;;;;;;;;;19.40;57.30;;;;;;1486024;40;19954;-73
2021/07/03 05:24:49;;;;;;;;;;;19.40;57.30;;;;;;1485763;40;19951;-74
2021/07/03 05:26:10;;;;;;;;;;;19.40;57.40;;;;;;1485823;40;20065;-74
2021/07/03 05:27:31;;;;;;;;;;;19.40;57.40;;;;;;1486674;40;19940;-73
2021/07/03 05:28:52;;;;;;;;;;;19.40;57.40;;;;;;1486816;40;20035;-74
2021/07/03 05:30:12;;;;;;;;;;;19.50;57.50;;;;;;1485536;40;19944;-74
2021/07/03 05:31:33;;;;;;;;;;;19.50;57.60;;;;;;1486536;40;19940;-74
2021/07/03 05:32:54;;;;;;;;;;;19.50;57.60;;;;;;1485991;40;19978;-74
2021/07/03 05:34:15;;;;;;;;;;;19.50;57.60;;;;;;1485096;40;19943;-74
2021/07/03 05:35:36;;;;;;;;;;;19.40;57.50;;;;;;1487638;40;19951;-74
2021/07/03 05:36:58;;;;;;;;;;;19.50;57.60;;;;;;1486108;40;19933;-74
2021/07/03 05:38:19;;;;;;;;;;;19.50;57.70;;;;;;1485774;40;19940;-73
2021/07/03 05:39:39;;;;;;;;;;;19.50;57.70;;;;;;1487184;39;19968;-74
2021/07/03 05:41:00;;;;;;;;;;;19.50;57.80;;;;;;1486167;39;20263;-74
2021/07/03 05:42:21;;;;;;;;;;;19.50;57.90;;;;;;1486024;40;19940;-74
2021/07/03 05:43:42;;;;;;;;;;;19.50;57.90;;;;;;1484503;40;19939;-73
2021/07/03 05:45:03;;;;;;;;;;;19.60;58.00;;;;;;1485134;40;20243;-74
2021/07/03 05:46:24;;;;;;;;;;;19.60;57.90;;;;;;1485554;40;20400;-74
2021/07/03 05:47:52;;;;;;;;;;;19.60;57.90;;;;;;1486243;40;19977;-74
2021/07/03 05:49:15;;;;;;;;;;;19.60;58.00;;;;;;1484883;40;19940;-74
2021/07/03 05:50:35;;;;;;;;;;;19.60;58.00;;;;;;1486940;40;19944;-73
2021/07/03 05:51:56;;;;;;;;;;;19.70;58.10;;;;;;1486663;40;20660;-73
2021/07/03 05:53:17;;;;;;;;;;;19.70;58.10;;;;;;1485070;40;19960;-73
2021/07/03 05:54:38;;;;;;;;;;;19.70;58.10;;;;;;1487764;40;20265;-73
2021/07/03 05:55:59;;;;;;;;;;;19.80;58.20;;;;;;1487681;39;20327;-73
2021/07/03 05:57:19;;;;;;;;;;;19.70;58.20;;;;;;1484981;39;20708;-74
2021/07/03 05:58:40;;;;;;;;;;;19.80;58.20;;;;;;1487350;39;19943;-74
2021/07/03 06:00:02;;;;;;;;;;;19.80;58.30;;;;;;1486914;39;20235;-73
2021/07/03 06:01:23;;;;;;;;;;;19.80;58.30;;;;;;1487544;39;19932;-74
2021/07/03 06:02:45;;;;;;;;;;;19.80;58.30;;;;;;1486855;40;19972;-73
2021/07/03 06:04:06;;;;;;;;;;;19.80;58.30;;;;;;1487007;40;20025;-74
2021/07/03 06:05:27;;;;;;;;;;;21.20;58.90;;;;;;1486657;40;19939;-74
2021/07/03 06:06:48;;;;;;;;;;;19.90;58.30;;;;;;1486649;40;19951;-73
2021/07/03 06:08:09;;;;;;;;;;;19.90;58.40;;;;;;1486002;40;19932;-74
2021/07/03 06:09:30;;;;;;;;;;;19.90;58.40;;;;;;1486952;40;20017;-73
2021/07/03 06:10:50;;;;;;;;;;;20.00;58.40;;;;;;1483092;40;19936;-74
2021/07/03 06:12:11;;;;;;;;;;;20.00;58.50;;;;;;1485159;40;19932;-74
2021/07/03 06:13:32;;;;;;;;;;;20.00;58.50;;;;;;1487143;40;19946;-73
2021/07/03 06:14:53;;;;;;;;;;;20.00;58.50;;;;;;1486394;40;19936;-74
2021/07/03 06:16:14;;;;;;;;;;;20.10;58.50;;;;;;1487316;40;19959;-74
2021/07/03 06:17:35;;;;;;;;;;;20.10;58.60;;;;;;1486250;40;19928;-73
2021/07/03 06:18:56;;;;;;;;;;;20.10;58.60;;;;;;1485549;40;19936;-74
2021/07/03 06:20:17;;;;;;;;;;;20.20;58.60;;;;;;1486186;40;19931;-73
2021/07/03 06:21:37;;;;;;;;;;;20.20;58.60;;;;;;1487021;40;19931;-74
2021/07/03 06:22:58;;;;;;;;;;;20.20;58.60;;;;;;1487168;39;19937;-73
2021/07/03 06:24:19;;;;;;;;;;;20.30;58.70;;;;;;1487153;39;19936;-73
2021/07/03 06:25:40;;;;;;;;;;;20.30;58.70;;;;;;1486095;40;19943;-74
2021/07/03 06:27:00;;;;;;;;;;;20.30;58.80;;;;;;1486592;40;20208;-73
2021/07/03 06:28:21;;;;;;;;;;;20.40;59.30;;;;;;1486622;40;19968;-73
2021/07/03 06:29:42;;;;;;;;;;;20.40;58.80;;;;;;1486894;40;19972;-74
2021/07/03 06:31:03;;;;;;;;;;;20.40;59.00;;;;;;1486231;40;19931;-73
2021/07/03 06:32:24;;;;;;;;;;;20.40;58.90;;;;;;1486626;40;19933;-73
2021/07/03 06:33:45;;;;;;;;;;;20.50;59.00;;;;;;1486530;40;20005;-73
2021/07/03 06:35:06;;;;;;;;;;;20.50;59.00;;;;;;1487995;40;19952;-74
2021/07/03 06:36:27;;;;;;;;;;;20.50;59.00;;;;;;1487010;39;19939;-74
2021/07/03 06:37:48;;;;;;;;;;;20.60;59.00;;;;;;1488402;39;19976;-74
2021/07/03 06:39:08;;;;;;;;;;;20.60;59.00;;;;;;1484705;40;19968;-74
2021/07/03 06:40:30;;;;;;;;;;;20.70;59.10;;;;;;1487370;40;19968;-74
2021/07/03 06:41:51;;;;;;;;;;;20.70;59.10;;;;;;1482382;40;20260;-73
2021/07/03 06:43:12;;;;;;;;;;;20.70;59.10;;;;;;1484231;40;19943;-73
2021/07/03 06:44:32;;;;;;;;;;;20.70;59.10;;;;;;1486302;40;20331;-73
2021/07/03 06:45:53;;;;;;;;;;;20.80;59.10;;;;;;1485796;40;19938;-73
2021/07/03 06:47:14;;;;;;;;;;;20.80;59.20;;;;;;1486364;40;20330;-73
2021/07/03 06:48:35;;;;;;;;;;;20.90;59.20;;;;;;1486372;40;19947;-73
2021/07/03 06:49:55;;;;;;;;;;;20.90;59.20;;;;;;1486380;40;19932;-74
2021/07/03 06:51:16;;;;;;;;;;;20.90;59.20;;;;;;1487355;40;19948;-73
2021/07/03 06:52:37;;;;;;;;;;;21.00;59.80;;;;;;1486646;40;19941;-73
2021/07/03 06:54:00;;;;;;;;;;;21.00;59.20;;;;;;1486358;40;19940;-74
2021/07/03 06:55:21;;;;;;;;;;;21.10;59.30;;;;;;1488168;40;19942;-74
2021/07/03 06:56:42;;;;;;;;;;;21.10;59.30;;;;;;1487420;39;19958;-74
2021/07/03 06:58:03;;;;;;;;;;;21.10;59.30;;;;;;1486563;39;19936;-73
2021/07/03 06:59:25;;;;;;;;;;;21.20;59.30;;;;;;1488177;40;19966;-73
2021/07/03 07:00:45;;;;;;;;;;;21.20;59.30;;;;;;1486910;39;19932;-74
2021/07/03 07:02:07;;;;;;;;;;;21.20;59.30;;;;;;1486792;40;19951;-74
2021/07/03 07:03:28;;;;;;;;;;;21.30;59.30;;;;;;1487163;40;20021;-73
2021/07/03 07:04:48;;;;;;;;;;;21.30;59.30;;;;;;1485835;40;19963;-74
2021/07/03 07:06:09;;;;;;;;;;;21.40;59.40;;;;;;1486331;40;20150;-74
2021/07/03 07:07:30;;;;;;;;;;;21.40;59.30;;;;;;1486863;40;20174;-74
2021/07/03 07:08:51;;;;;;;;;;;21.50;59.40;;;;;;1487011;40;19936;-73
2021/07/03 07:10:11;;;;;;;;;;;21.50;59.40;;;;;;1487003;40;19936;-74
2021/07/03 07:11:32;;;;;;;;;;;21.50;59.40;;;;;;1487598;40;19949;-73
2021/07/03 07:12:53;;;;;;;;;;;21.60;59.50;;;;;;1487047;40;20189;-74
2021/07/03 07:14:14;;;;;;;;;;;21.60;59.40;;;;;;1485386;40;19936;-73
2021/07/03 07:15:35;;;;;;;;;;;21.60;59.40;;;;;;1486127;40;20037;-74
2021/07/03 07:16:56;;;;;;;;;;;21.70;59.40;;;;;;1488202;40;19943;-74
2021/07/03 07:18:16;;;;;;;;;;;21.70;59.40;;;;;;1486427;40;19944;-73
2021/07/03 07:19:38;;;;;;;;;;;21.70;59.40;;;;;;1486784;40;20172;-74
2021/07/03 07:20:58;;;;;;;;;;;21.80;59.50;;;;;;1487685;39;19943;-73
2021/07/03 07:22:19;;;;;;;;;;;21.80;59.50;;;;;;1486275;40;19932;-73
2021/07/03 07:23:40;;;;;;;;;;;21.80;59.40;;;;;;1485645;40;20268;-73
2021/07/03 07:25:03;;;;;;;;;;;21.90;59.50;;;;;;1486519;40;19960;-73
2021/07/03 07:26:23;;;;;;;;;;;22.00;59.60;;;;;;1486500;40;20339;-74
2021/07/03 07:27:44;;;;;;;;;;;22.00;59.70;;;;;;1487570;40;20021;-74
2021/07/03 07:29:05;;;;;;;;;;;22.10;59.70;;;;;;1487899;40;19955;-73
2021/07/03 07:30:26;;;;;;;;;;;22.10;59.60;;;;;;1486116;40;20474;-74
2021/07/03 07:31:49;;;;;;;;;;;22.20;59.60;;;;;;1486637;40;19944;-74
2021/07/03 07:33:10;;;;;;;;;;;22.20;59.60;;;;;;1487252;40;19932;-73
2021/07/03 07:34:30;;;;;;;;;;;22.20;59.50;;;;;;1483867;40;19992;-74
2021/07/03 07:35:51;;;;;;;;;;;22.20;59.50;;;;;;1483039;40;19948;-73
2021/07/03 07:37:12;;;;;;;;;;;22.30;59.50;;;;;;1487803;40;19952;-73
2021/07/03 07:38:33;;;;;;;;;;;22.30;59.40;;;;;;1484725;40;19991;-74
2021/07/03 07:39:54;;;;;;;;;;;22.40;59.50;;;;;;1486762;40;19968;-73
2021/07/03 07:41:18;;;;;;;;;;;22.40;59.50;;;;;;1487571;39;19988;-73
2021/07/03 07:42:40;;;;;;;;;;;22.40;59.50;;;;;;1486569;40;19948;-73
2021/07/03 07:44:00;;;;;;;;;;;22.50;59.50;;;;;;1487624;40;20219;-73
2021/07/03 07:45:21;;;;;;;;;;;22.50;59.50;;;;;;1486149;40;19947;-73
2021/07/03 07:46:42;;;;;;;;;;;22.50;59.50;;;;;;1486937;40;20180;-74
2021/07/03 07:48:03;;;;;;;;;;;22.60;59.50;;;;;;1487981;40;20032;-74
2021/07/03 07:49:24;;;;;;;;;;;22.60;59.50;;;;;;1486457;40;19940;-74
2021/07/03 07:50:44;;;;;;;;;;;22.70;59.50;;;;;;1483548;40;20180;-74
2021/07/03 07:52:05;;;;;;;;;;;22.70;59.60;;;;;;1485872;40;19939;-74